Time,TemperatureF,DewpointF,PressureIn,WindDirection,WindDirectionDegrees,WindSpeedMPH,WindSpeedGustMPH,Humidity,HourlyPrecipIn,Conditions,Clouds,dailyrainin,SoftwareType,DateUTC
2013-11-16 00:05:00,53.1,46.0,29.67,SSE,157,10.1,20.6,77,-99.99,,,0.00,wxRedirect v1.1,2013-11-16 06:05:00,
2013-11-16 00:10:00,52.9,45.9,29.66,SSW,202,16.6,20.6,77,-99.99,,,0.00,wxRedirect v1.1,2013-11-16 06:10:00,
2013-11-16 00:15:00,52.9,45.9,29.66,SSE,157,26.2,26.2,77,-99.99,,,0.00,wxRedirect v1.1,2013-11-16 06:15:00,
2013-11-16 00:21:00,52.9,45.9,29.66,SSE,157,15.2,26.2,77,-99.99,,,0.00,wxRedirect v1.1,2013-11-16 06:21:00,
2013-11-16 00:26:00,52.9,46.2,29.66,SSE,157,11.4,18.1,78,-99.99,,,0.00,wxRedirect v1.1,2013-11-16 06:26:00,
2013-11-16 00:31:00,52.9,46.2,29.66,SE,135,6.5,17.9,78,-99.99,,,0.00,wxRedirect v1.1,2013-11-16 06:31:00,
2013-11-16 00:37:00,52.9,46.2,29.65,SSE,157,10.1,14.8,78,-99.99,,,0.00,wxRedirect v1.1,2013-11-16 06:37:00,
2013-11-16 00:42:00,52.9,46.2,29.65,SSE,157,11.6,19.2,78,-99.99,,,0.00,wxRedirect v1.1,2013-11-16 06:42:00,
2013-11-16 00:47:00,52.9,46.2,29.65,SSE,157,10.7,19.2,78,-99.99,,,0.00,wxRedirect v1.1,2013-11-16 06:47:00,
2013-11-16 00:53:00,52.9,46.6,29.65,SSW,202,8.5,18.6,79,-99.99,,,0.00,wxRedirect v1.1,2013-11-16 06:53:00,
2013-11-16 00:58:00,52.7,46.4,29.64,SSE,157,8.9,18.6,79,-99.99,,,0.00,wxRedirect v1.1,2013-11-16 06:58:00,
2013-11-16 01:03:00,52.7,46.4,29.64,SSE,157,16.3,16.3,79,-99.99,,,0.00,wxRedirect v1.1,2013-11-16 07:03:00,
2013-11-16 01:09:00,52.9,46.9,29.64,South,180,10.5,19.2,80,-99.99,,,0.00,wxRedirect v1.1,2013-11-16 07:09:00,
2013-11-16 01:14:00,52.9,46.9,29.64,South,180,15.0,19.9,80,-99.99,,,0.00,wxRedirect v1.1,2013-11-16 07:14:00,
2013-11-16 01:19:00,52.9,46.9,29.64,SSE,157,19.9,19.9,80,-99.99,,,0.00,wxRedirect v1.1,2013-11-16 07:19:00,
2013-11-16 01:25:00,52.9,46.9,29.63,SSE,157,11.0,20.6,80,-99.99,,,0.00,wxRedirect v1.1,2013-11-16 07:25:00,
2013-11-16 01:30:00,52.9,46.9,29.63,SSW,202,17.9,20.6,80,-99.99,,,0.00,wxRedirect v1.1,2013-11-16 07:30:00,
2013-11-16 01:35:00,53.1,47.1,29.63,SSE,157,9.6,22.8,80,-99.99,,,0.00,wxRedirect v1.1,2013-11-16 07:35:00,
2013-11-16 01:41:00,53.2,47.6,29.63,South,180,10.7,22.8,81,-99.99,,,0.00,wxRedirect v1.1,2013-11-16 07:41:00,
2013-11-16 01:46:00,53.2,47.6,29.63,South,180,12.3,16.1,81,-99.99,,,0.00,wxRedirect v1.1,2013-11-16 07:46:00,
2013-11-16 01:51:00,53.2,47.6,29.62,South,180,12.5,19.9,81,-99.99,,,0.00,wxRedirect v1.1,2013-11-16 07:51:00,
2013-11-16 01:57:00,53.2,47.6,29.62,SSE,157,7.8,20.4,81,-99.99,,,0.00,wxRedirect v1.1,2013-11-16 07:57:00,
2013-11-16 02:02:00,53.2,47.6,29.62,South,180,8.1,20.4,81,-99.99,,,0.00,wxRedirect v1.1,2013-11-16 08:02:00,
2013-11-16 02:07:00,53.2,47.9,29.61,SSE,157,20.8,20.8,82,-99.99,,,0.00,wxRedirect v1.1,2013-11-16 08:07:00,
2013-11-16 02:13:00,53.2,47.9,29.61,SSW,202,15.7,20.8,82,-99.99,,,0.00,wxRedirect v1.1,2013-11-16 08:13:00,
2013-11-16 02:18:00,53.2,47.9,29.61,SSW,202,8.9,21.3,82,-99.99,,,0.00,wxRedirect v1.1,2013-11-16 08:18:00,
2013-11-16 02:23:00,53.2,47.9,29.60,SSE,157,12.3,21.3,82,-99.99,,,0.00,wxRedirect v1.1,2013-11-16 08:23:00,
2013-11-16 02:29:00,53.4,48.1,29.60,South,180,9.2,20.6,82,-99.99,,,0.00,wxRedirect v1.1,2013-11-16 08:29:00,
2013-11-16 02:34:00,53.4,48.1,29.60,SSE,157,11.2,19.0,82,-99.99,,,0.00,wxRedirect v1.1,2013-11-16 08:34:00,
2013-11-16 02:39:00,53.4,48.4,29.60,South,180,12.5,19.0,83,-99.99,,,0.00,wxRedirect v1.1,2013-11-16 08:39:00,
2013-11-16 02:45:00,53.4,48.4,29.60,SSE,157,15.9,20.4,83,-99.99,,,0.00,wxRedirect v1.1,2013-11-16 08:45:00,
2013-11-16 02:50:00,53.4,48.4,29.60,SSE,157,20.1,23.5,83,-99.99,,,0.00,wxRedirect v1.1,2013-11-16 08:50:00,
2013-11-16 02:55:00,53.8,48.7,29.60,South,180,16.1,23.5,83,-99.99,,,0.00,wxRedirect v1.1,2013-11-16 08:55:00,
2013-11-16 03:01:00,53.8,48.7,29.60,SSE,157,18.3,23.7,83,-99.99,,,0.00,wxRedirect v1.1,2013-11-16 09:01:00,
2013-11-16 03:06:00,53.8,48.7,29.60,SSE,157,8.1,23.7,83,-99.99,,,0.00,wxRedirect v1.1,2013-11-16 09:06:00,
2013-11-16 03:11:00,53.8,48.7,29.60,South,180,21.0,21.0,83,-99.99,,,0.00,wxRedirect v1.1,2013-11-16 09:11:00,
2013-11-16 03:17:00,53.8,49.0,29.59,South,180,7.4,21.0,84,-99.99,,,0.00,wxRedirect v1.1,2013-11-16 09:17:00,
2013-11-16 03:22:00,54.0,49.2,29.59,South,180,9.2,18.3,84,-99.99,,,0.00,wxRedirect v1.1,2013-11-16 09:22:00,
2013-11-16 03:27:00,54.0,49.2,29.59,South,180,13.4,14.8,84,-99.99,,,0.00,wxRedirect v1.1,2013-11-16 09:27:00,
2013-11-16 03:33:00,54.0,49.2,29.58,South,180,11.0,14.8,84,-99.99,,,0.00,wxRedirect v1.1,2013-11-16 09:33:00,
2013-11-16 03:38:00,54.1,49.4,29.58,SW,225,10.3,19.7,84,-99.99,,,0.00,wxRedirect v1.1,2013-11-16 09:38:00,
2013-11-16 03:43:00,54.1,49.4,29.58,SSE,157,10.1,19.7,84,-99.99,,,0.00,wxRedirect v1.1,2013-11-16 09:43:00,
2013-11-16 03:49:00,54.3,49.6,29.58,SSE,157,10.1,15.0,84,-99.99,,,0.00,wxRedirect v1.1,2013-11-16 09:49:00,
2013-11-16 03:54:00,54.3,49.6,29.58,South,180,10.7,17.9,84,-99.99,,,0.00,wxRedirect v1.1,2013-11-16 09:54:00,
2013-11-16 03:59:00,54.5,49.7,29.58,SSE,157,17.7,18.3,84,-99.99,,,0.00,wxRedirect v1.1,2013-11-16 09:59:00,
2013-11-16 04:05:00,54.5,49.7,29.58,SSE,157,12.5,18.3,84,-99.99,,,0.00,wxRedirect v1.1,2013-11-16 10:05:00,
2013-11-16 04:10:00,54.7,49.9,29.58,South,180,17.9,17.9,84,-99.99,,,0.00,wxRedirect v1.1,2013-11-16 10:10:00,
2013-11-16 04:15:00,54.7,49.9,29.58,SSE,157,13.0,19.7,84,-99.99,,,0.00,wxRedirect v1.1,2013-11-16 10:15:00,
2013-11-16 04:21:00,54.9,50.1,29.58,South,180,14.5,19.7,84,-99.99,,,0.00,wxRedirect v1.1,2013-11-16 10:21:00,
2013-11-16 04:26:00,55.0,50.2,29.58,SSE,157,10.5,19.5,84,-99.99,,,0.00,wxRedirect v1.1,2013-11-16 10:26:00,
2013-11-16 04:31:00,55.0,50.2,29.58,South,180,11.6,20.4,84,-99.99,,,0.00,wxRedirect v1.1,2013-11-16 10:31:00,
2013-11-16 04:37:00,55.2,50.4,29.58,South,180,10.5,20.4,84,-99.99,,,0.00,wxRedirect v1.1,2013-11-16 10:37:00,
2013-11-16 04:42:00,55.2,50.4,29.58,SSE,157,8.3,19.9,84,-99.99,,,0.00,wxRedirect v1.1,2013-11-16 10:42:00,
2013-11-16 04:47:00,55.2,50.4,29.58,SSE,157,8.5,19.9,84,-99.99,,,0.00,wxRedirect v1.1,2013-11-16 10:47:00,
2013-11-16 04:53:00,55.4,50.6,29.57,SSE,157,11.6,21.0,84,-99.99,,,0.00,wxRedirect v1.1,2013-11-16 10:53:00,
2013-11-16 04:58:00,55.6,50.4,29.57,SSE,157,15.7,19.0,83,-99.99,,,0.00,wxRedirect v1.1,2013-11-16 10:58:00,
2013-11-16 05:03:00,55.8,50.6,29.56,South,180,16.3,20.8,83,-99.99,,,0.00,wxRedirect v1.1,2013-11-16 11:03:00,
2013-11-16 05:09:00,55.9,50.8,29.56,South,180,10.1,18.1,83,-99.99,,,0.00,wxRedirect v1.1,2013-11-16 11:09:00,
2013-11-16 05:14:00,55.9,50.8,29.56,South,180,6.0,17.2,83,-99.99,,,0.00,wxRedirect v1.1,2013-11-16 11:14:00,
2013-11-16 05:19:00,55.9,50.8,29.57,SSE,157,13.9,18.3,83,-99.99,,,0.00,wxRedirect v1.1,2013-11-16 11:19:00,
2013-11-16 05:25:00,56.1,51.0,29.56,SSE,157,17.4,19.0,83,-99.99,,,0.00,wxRedirect v1.1,2013-11-16 11:25:00,
2013-11-16 05:30:00,56.1,51.0,29.56,SSE,157,16.3,20.6,83,-99.99,,,0.00,wxRedirect v1.1,2013-11-16 11:30:00,
2013-11-16 05:35:00,56.1,51.0,29.56,SE,135,13.9,19.0,83,-99.99,,,0.00,wxRedirect v1.1,2013-11-16 11:35:00,
2013-11-16 05:41:00,56.3,51.2,29.56,SSE,157,8.9,18.3,83,-99.99,,,0.00,wxRedirect v1.1,2013-11-16 11:41:00,
2013-11-16 05:46:00,56.3,51.2,29.56,SSW,202,10.3,20.6,83,-99.99,,,0.00,wxRedirect v1.1,2013-11-16 11:46:00,
2013-11-16 05:51:00,56.3,50.8,29.56,South,180,13.6,20.6,82,-99.99,,,0.00,wxRedirect v1.1,2013-11-16 11:51:00,
2013-11-16 05:57:00,56.3,50.8,29.55,SSW,202,15.0,16.8,82,-99.99,,,0.00,wxRedirect v1.1,2013-11-16 11:57:00,
2013-11-16 06:02:00,56.5,51.0,29.55,SE,135,14.1,19.2,82,-99.99,,,0.00,wxRedirect v1.1,2013-11-16 12:02:00,
2013-11-16 06:07:00,56.5,51.0,29.55,SSE,157,19.5,19.5,82,-99.99,,,0.00,wxRedirect v1.1,2013-11-16 12:07:00,
2013-11-16 06:13:00,56.5,51.0,29.55,South,180,11.2,19.5,82,-99.99,,,0.00,wxRedirect v1.1,2013-11-16 12:13:00,
2013-11-16 06:18:00,56.8,51.4,29.55,South,180,15.4,18.6,82,-99.99,,,0.00,wxRedirect v1.1,2013-11-16 12:18:00,
2013-11-16 06:24:00,56.8,51.4,29.54,SSE,157,8.5,18.6,82,-99.99,,,0.00,wxRedirect v1.1,2013-11-16 12:24:00,
2013-11-16 06:29:00,56.8,51.4,29.54,South,180,12.1,17.7,82,-99.99,,,0.00,wxRedirect v1.1,2013-11-16 12:29:00,
2013-11-16 06:34:00,56.8,51.4,29.54,SSE,157,15.4,16.6,82,-99.99,,,0.00,wxRedirect v1.1,2013-11-16 12:34:00,
2013-11-16 06:39:00,57.0,51.5,29.54,South,180,9.6,21.5,82,-99.99,,,0.00,wxRedirect v1.1,2013-11-16 12:39:00,
2013-11-16 06:45:00,57.0,51.5,29.54,SSE,157,11.4,22.1,82,-99.99,,,0.00,wxRedirect v1.1,2013-11-16 12:45:00,
2013-11-16 06:50:00,57.0,51.2,29.54,SE,135,7.8,24.4,81,-99.99,,,0.00,wxRedirect v1.1,2013-11-16 12:50:00,
2013-11-16 06:55:00,57.0,51.2,29.54,South,180,11.0,27.3,81,-99.99,,,0.00,wxRedirect v1.1,2013-11-16 12:55:00,
2013-11-16 07:01:00,57.0,51.2,29.54,SSE,157,18.3,21.3,81,-99.99,,,0.00,wxRedirect v1.1,2013-11-16 13:01:00,
2013-11-16 07:06:00,57.0,51.2,29.54,SSW,202,11.2,21.3,81,-99.99,,,0.00,wxRedirect v1.1,2013-11-16 13:06:00,
2013-11-16 07:11:00,57.0,50.9,29.54,South,180,15.9,24.2,80,-99.99,,,0.00,wxRedirect v1.1,2013-11-16 13:11:00,
2013-11-16 07:17:00,57.0,50.9,29.54,SSW,202,17.4,24.2,80,-99.99,,,0.00,wxRedirect v1.1,2013-11-16 13:17:00,
2013-11-16 07:22:00,57.0,50.9,29.54,SSE,157,14.8,23.5,80,-99.99,,,0.00,wxRedirect v1.1,2013-11-16 13:22:00,
2013-11-16 07:27:00,57.2,51.1,29.54,SSE,157,11.4,25.3,80,-99.99,,,0.00,wxRedirect v1.1,2013-11-16 13:27:00,
2013-11-16 07:33:00,57.2,51.1,29.54,SSE,157,11.9,25.3,80,-99.99,,,0.00,wxRedirect v1.1,2013-11-16 13:33:00,
2013-11-16 07:38:00,57.4,51.3,29.54,South,180,12.8,20.4,80,-99.99,,,0.00,wxRedirect v1.1,2013-11-16 13:38:00,
2013-11-16 07:43:00,57.4,51.3,29.54,South,180,15.0,20.6,80,-99.99,,,0.00,wxRedirect v1.1,2013-11-16 13:43:00,
2013-11-16 07:49:00,57.4,50.9,29.54,South,180,11.6,20.6,79,-99.99,,,0.00,wxRedirect v1.1,2013-11-16 13:49:00,
2013-11-16 07:54:00,57.4,50.9,29.54,SSE,157,21.0,24.2,79,-99.99,,,0.00,wxRedirect v1.1,2013-11-16 13:54:00,
2013-11-16 07:59:00,57.4,50.9,29.54,SSE,157,7.8,24.2,79,-99.99,,,0.00,wxRedirect v1.1,2013-11-16 13:59:00,
2013-11-16 08:05:00,57.4,50.9,29.54,South,180,13.9,22.6,79,-99.99,,,0.00,wxRedirect v1.1,2013-11-16 14:05:00,
2013-11-16 08:10:00,57.6,51.1,29.54,South,180,13.4,22.6,79,-99.99,,,0.00,wxRedirect v1.1,2013-11-16 14:10:00,
2013-11-16 08:15:00,57.6,51.1,29.54,South,180,11.4,21.9,79,-99.99,,,0.00,wxRedirect v1.1,2013-11-16 14:15:00,
2013-11-16 08:21:00,57.7,51.3,29.54,SSE,157,11.9,19.5,79,-99.99,,,0.00,wxRedirect v1.1,2013-11-16 14:21:00,
2013-11-16 08:26:00,57.7,51.3,29.53,SSE,157,16.1,22.1,79,-99.99,,,0.00,wxRedirect v1.1,2013-11-16 14:26:00,
2013-11-16 08:32:00,57.9,51.4,29.54,South,180,24.8,24.8,79,-99.99,,,0.00,wxRedirect v1.1,2013-11-16 14:32:00,
2013-11-16 08:37:00,57.9,51.1,29.54,South,180,14.3,24.8,78,-99.99,,,0.00,wxRedirect v1.1,2013-11-16 14:37:00,
2013-11-16 08:42:00,57.9,51.1,29.55,South,180,5.8,21.7,78,-99.99,,,0.00,wxRedirect v1.1,2013-11-16 14:42:00,
2013-11-16 08:47:00,58.1,51.3,29.54,SSE,157,8.9,21.7,78,-99.99,,,0.00,wxRedirect v1.1,2013-11-16 14:47:00,
2013-11-16 08:53:00,58.3,51.1,29.55,South,180,8.1,20.6,77,-99.99,,,0.00,wxRedirect v1.1,2013-11-16 14:53:00,
2013-11-16 08:58:00,58.5,51.3,29.54,SSW,202,14.5,21.9,77,-99.99,,,0.00,wxRedirect v1.1,2013-11-16 14:58:00,
2013-11-16 09:04:00,58.6,51.4,29.54,SSE,157,8.7,20.6,77,-99.99,,,0.00,wxRedirect v1.1,2013-11-16 15:04:00,
2013-11-16 09:09:00,58.8,51.3,29.54,South,180,26.2,27.3,76,-99.99,,,0.00,wxRedirect v1.1,2013-11-16 15:09:00,
2013-11-16 09:14:00,58.8,51.3,29.55,South,180,21.9,27.3,76,-99.99,,,0.00,wxRedirect v1.1,2013-11-16 15:14:00,
2013-11-16 09:20:00,58.8,51.3,29.55,South,180,11.0,25.1,76,-99.99,,,0.00,wxRedirect v1.1,2013-11-16 15:20:00,
2013-11-16 09:25:00,59.2,51.3,29.55,SSE,157,11.4,24.6,75,-99.99,,,0.00,wxRedirect v1.1,2013-11-16 15:25:00,
2013-11-16 09:30:00,59.5,51.6,29.55,South,180,17.9,19.7,75,-99.99,,,0.00,wxRedirect v1.1,2013-11-16 15:30:00,
2013-11-16 09:36:00,60.1,52.2,29.55,SSW,202,19.9,24.2,75,-99.99,,,0.00,wxRedirect v1.1,2013-11-16 15:36:00,
2013-11-16 09:41:00,61.0,52.3,29.55,South,180,25.1,25.1,73,-99.99,,,0.00,wxRedirect v1.1,2013-11-16 15:41:00,
2013-11-16 09:46:00,61.2,52.5,29.54,South,180,13.4,25.1,73,-99.99,,,0.00,wxRedirect v1.1,2013-11-16 15:46:00,
2013-11-16 09:52:00,61.7,52.6,29.54,South,180,19.2,30.0,72,-99.99,,,0.00,wxRedirect v1.1,2013-11-16 15:52:00,
2013-11-16 09:57:00,62.4,52.9,29.55,South,180,19.5,24.2,71,-99.99,,,0.00,wxRedirect v1.1,2013-11-16 15:57:00,
2013-11-16 10:02:00,62.8,52.9,29.55,SSW,202,6.0,23.9,70,-99.99,,,0.00,wxRedirect v1.1,2013-11-16 16:02:00,
2013-11-16 10:08:00,63.0,53.1,29.54,SSW,202,14.8,22.4,70,-99.99,,,0.00,wxRedirect v1.1,2013-11-16 16:08:00,
2013-11-16 10:13:00,63.1,52.8,29.54,South,180,25.5,25.5,69,-99.99,,,0.00,wxRedirect v1.1,2013-11-16 16:13:00,
2013-11-16 10:18:00,63.1,52.8,29.54,South,180,15.0,28.0,69,-99.99,,,0.00,wxRedirect v1.1,2013-11-16 16:18:00,
2013-11-16 10:24:00,63.1,52.8,29.54,SSW,202,19.5,32.0,69,-99.99,,,0.00,wxRedirect v1.1,2013-11-16 16:24:00,
2013-11-16 10:29:00,63.1,52.8,29.54,SE,135,15.7,32.0,69,-99.99,,,0.00,wxRedirect v1.1,2013-11-16 16:29:00,
2013-11-16 10:34:00,63.1,52.8,29.54,South,180,15.9,22.1,69,-99.99,,,0.00,wxRedirect v1.1,2013-11-16 16:34:00,
2013-11-16 10:40:00,63.1,52.8,29.54,South,180,18.6,21.0,69,-99.99,,,0.00,wxRedirect v1.1,2013-11-16 16:40:00,
2013-11-16 10:45:00,63.7,53.3,29.54,South,180,16.6,25.5,69,-99.99,,,0.00,wxRedirect v1.1,2013-11-16 16:45:00,
2013-11-16 10:50:00,64.2,53.0,29.55,SSE,157,14.3,25.5,67,-99.99,,,0.00,wxRedirect v1.1,2013-11-16 16:50:00,
2013-11-16 10:56:00,64.6,53.4,29.54,South,180,21.0,23.5,67,-99.99,,,0.00,wxRedirect v1.1,2013-11-16 16:56:00,
2013-11-16 11:01:00,64.6,52.9,29.54,South,180,7.4,22.1,66,-99.99,,,0.00,wxRedirect v1.1,2013-11-16 17:01:00,
2013-11-16 11:06:00,64.8,53.5,29.54,SSE,157,15.2,22.1,67,-99.99,,,0.00,wxRedirect v1.1,2013-11-16 17:06:00,
2013-11-16 11:12:00,65.1,53.4,29.53,SSE,157,26.6,26.6,66,-99.99,,,0.00,wxRedirect v1.1,2013-11-16 17:12:00,
2013-11-16 11:17:00,65.8,54.1,29.53,South,180,8.3,26.6,66,-99.99,,,0.00,wxRedirect v1.1,2013-11-16 17:17:00,
2013-11-16 11:22:00,66.0,53.9,29.53,SSW,202,10.3,20.4,65,-99.99,,,0.00,wxRedirect v1.1,2013-11-16 17:22:00,
2013-11-16 11:28:00,66.7,54.1,29.52,SSW,202,12.1,24.4,64,-99.99,,,0.00,wxRedirect v1.1,2013-11-16 17:28:00,
2013-11-16 11:33:00,66.9,53.9,29.53,SSE,157,12.3,25.3,63,-99.99,,,0.00,wxRedirect v1.1,2013-11-16 17:33:00,
2013-11-16 11:38:00,67.3,54.2,29.52,SSE,157,13.9,30.2,63,-99.99,,,0.00,wxRedirect v1.1,2013-11-16 17:38:00,
2013-11-16 11:44:00,67.3,53.8,29.52,South,180,20.8,30.2,62,-99.99,,,0.00,wxRedirect v1.1,2013-11-16 17:44:00,
2013-11-16 11:49:00,67.1,53.6,29.52,South,180,16.8,22.8,62,-99.99,,,0.00,wxRedirect v1.1,2013-11-16 17:49:00,
2013-11-16 11:54:00,66.9,53.9,29.51,SSW,202,11.6,22.6,63,-99.99,,,0.00,wxRedirect v1.1,2013-11-16 17:54:00,
2013-11-16 12:00:00,67.5,54.0,29.50,South,180,13.6,22.6,62,-99.99,,,0.00,wxRedirect v1.1,2013-11-16 18:00:00,
2013-11-16 12:05:00,68.0,54.5,29.50,SSE,157,12.1,22.6,62,-99.99,,,0.00,wxRedirect v1.1,2013-11-16 18:05:00,
2013-11-16 12:10:00,68.4,54.8,29.50,South,180,4.9,20.8,62,-99.99,,,0.00,wxRedirect v1.1,2013-11-16 18:10:00,
2013-11-16 12:16:00,68.7,54.7,29.49,South,180,18.8,18.8,61,-99.99,,,0.00,wxRedirect v1.1,2013-11-16 18:16:00,
2013-11-16 12:21:00,69.3,54.9,29.50,South,180,16.3,18.8,60,-99.99,,,0.00,wxRedirect v1.1,2013-11-16 18:21:00,
2013-11-16 12:26:00,69.4,55.0,29.49,SSW,202,14.5,22.6,60,-99.99,,,0.00,wxRedirect v1.1,2013-11-16 18:26:00,
2013-11-16 12:32:00,69.6,54.7,29.49,SSW,202,10.3,22.6,59,-99.99,,,0.00,wxRedirect v1.1,2013-11-16 18:32:00,
2013-11-16 12:37:00,70.0,54.6,29.49,SSE,157,16.6,18.6,58,-99.99,,,0.00,wxRedirect v1.1,2013-11-16 18:37:00,
2013-11-16 12:42:00,70.3,54.9,29.48,South,180,12.1,21.3,58,-99.99,,,0.00,wxRedirect v1.1,2013-11-16 18:42:00,
2013-11-16 12:48:00,70.5,54.5,29.48,SSW,202,18.6,25.3,57,-99.99,,,0.00,wxRedirect v1.1,2013-11-16 18:48:00,
2013-11-16 12:53:00,70.7,54.2,29.48,SSW,202,21.7,32.2,56,-99.99,,,0.00,wxRedirect v1.1,2013-11-16 18:53:00,
2013-11-16 12:58:00,70.7,54.7,29.47,South,180,14.8,32.2,57,-99.99,,,0.00,wxRedirect v1.1,2013-11-16 18:58:00,
2013-11-16 13:04:00,70.9,54.4,29.47,SSW,202,20.1,28.0,56,-99.99,,,0.00,wxRedirect v1.1,2013-11-16 19:04:00,
2013-11-16 13:09:00,71.1,54.0,29.47,South,180,25.9,25.9,55,-99.99,,,0.00,wxRedirect v1.1,2013-11-16 19:09:00,
2013-11-16 13:14:00,71.2,53.7,29.47,SSW,202,10.3,25.9,54,-99.99,,,0.00,wxRedirect v1.1,2013-11-16 19:14:00,
2013-11-16 13:20:00,71.4,53.8,29.46,SSW,202,9.4,18.1,54,-99.99,,,0.00,wxRedirect v1.1,2013-11-16 19:20:00,
2013-11-16 13:25:00,71.8,53.7,29.46,South,180,8.3,17.7,53,-99.99,,,0.00,wxRedirect v1.1,2013-11-16 19:25:00,
2013-11-16 13:30:00,72.1,53.5,29.46,WSW,247,13.2,22.8,52,-99.99,,,0.00,wxRedirect v1.1,2013-11-16 19:30:00,
2013-11-16 13:36:00,72.3,53.1,29.45,SSW,202,8.9,23.3,51,-99.99,,,0.00,wxRedirect v1.1,2013-11-16 19:36:00,
2013-11-16 13:41:00,72.5,53.3,29.45,WSW,247,16.8,23.3,51,-99.99,,,0.00,wxRedirect v1.1,2013-11-16 19:41:00,
2013-11-16 13:46:00,72.7,53.0,29.44,SW,225,14.5,19.0,50,-99.99,,,0.00,wxRedirect v1.1,2013-11-16 19:46:00,
2013-11-16 13:52:00,72.9,53.1,29.44,SW,225,6.0,22.8,50,-99.99,,,0.00,wxRedirect v1.1,2013-11-16 19:52:00,
2013-11-16 13:57:00,73.2,52.8,29.44,SW,225,8.3,22.1,49,-99.99,,,0.00,wxRedirect v1.1,2013-11-16 19:57:00,
2013-11-16 14:02:00,73.2,52.8,29.44,SSE,157,7.8,21.9,49,-99.99,,,0.00,wxRedirect v1.1,2013-11-16 20:02:00,
2013-11-16 14:08:00,73.4,53.6,29.43,SSW,202,8.5,21.9,50,-99.99,,,0.00,wxRedirect v1.1,2013-11-16 20:08:00,
2013-11-16 14:13:00,73.4,53.6,29.43,South,180,13.4,21.0,50,-99.99,,,0.00,wxRedirect v1.1,2013-11-16 20:13:00,
2013-11-16 14:18:00,73.6,53.8,29.43,SSW,202,14.5,21.0,50,-99.99,,,0.00,wxRedirect v1.1,2013-11-16 20:18:00,
2013-11-16 14:24:00,73.6,53.2,29.42,South,180,19.9,19.9,49,-99.99,,,0.00,wxRedirect v1.1,2013-11-16 20:24:00,
2013-11-16 14:29:00,73.4,53.0,29.42,South,180,25.5,25.5,49,-99.99,,,0.00,wxRedirect v1.1,2013-11-16 20:29:00,
2013-11-16 14:34:00,73.6,53.2,29.42,South,180,19.2,25.5,49,-99.99,,,0.00,wxRedirect v1.1,2013-11-16 20:34:00,
2013-11-16 14:40:00,73.8,53.3,29.42,SSE,157,13.0,21.5,49,-99.99,,,0.00,wxRedirect v1.1,2013-11-16 20:40:00,
2013-11-16 14:45:00,73.9,53.5,29.42,SSE,157,28.9,28.9,49,-99.99,,,0.00,wxRedirect v1.1,2013-11-16 20:45:00,
2013-11-16 14:50:00,73.9,52.9,29.42,South,180,18.6,28.9,48,-99.99,,,0.00,wxRedirect v1.1,2013-11-16 20:50:00,
2013-11-16 14:56:00,73.9,52.9,29.42,SSE,157,15.0,27.3,48,-99.99,,,0.00,wxRedirect v1.1,2013-11-16 20:56:00,
2013-11-16 15:01:00,73.9,52.3,29.41,SSE,157,15.2,19.7,47,-99.99,,,0.00,wxRedirect v1.1,2013-11-16 21:01:00,
2013-11-16 15:06:00,73.9,52.3,29.41,SSW,202,11.9,20.1,47,-99.99,,,0.00,wxRedirect v1.1,2013-11-16 21:06:00,
2013-11-16 15:12:00,74.1,52.5,29.41,SSW,202,11.6,20.4,47,-99.99,,,0.00,wxRedirect v1.1,2013-11-16 21:12:00,
2013-11-16 15:17:00,74.1,53.1,29.42,SW,225,10.5,23.7,48,-99.99,,,0.00,wxRedirect v1.1,2013-11-16 21:17:00,
2013-11-16 15:22:00,74.1,53.1,29.42,South,180,13.4,23.7,48,-99.99,,,0.00,wxRedirect v1.1,2013-11-16 21:22:00,
2013-11-16 15:28:00,74.1,53.1,29.42,South,180,10.5,25.3,48,-99.99,,,0.00,wxRedirect v1.1,2013-11-16 21:28:00,
2013-11-16 15:33:00,74.1,53.7,29.42,South,180,11.9,32.4,49,-99.99,,,0.00,wxRedirect v1.1,2013-11-16 21:33:00,
2013-11-16 15:38:00,74.1,54.3,29.42,South,180,30.0,32.4,50,-99.99,,,0.00,wxRedirect v1.1,2013-11-16 21:38:00,
2013-11-16 15:44:00,73.8,54.0,29.42,South,180,25.1,32.0,50,-99.99,,,0.00,wxRedirect v1.1,2013-11-16 21:44:00,
2013-11-16 15:49:00,73.6,53.8,29.42,SW,225,13.2,32.0,50,-99.99,,,0.00,wxRedirect v1.1,2013-11-16 21:49:00,
2013-11-16 15:54:00,73.2,53.9,29.42,SSE,157,17.7,24.2,51,-99.99,,,0.00,wxRedirect v1.1,2013-11-16 21:54:00,
2013-11-16 16:00:00,73.2,53.9,29.42,SW,225,19.7,28.4,51,-99.99,,,0.00,wxRedirect v1.1,2013-11-16 22:00:00,
2013-11-16 16:05:00,73.0,53.8,29.42,South,180,9.4,28.4,51,-99.99,,,0.00,wxRedirect v1.1,2013-11-16 22:05:00,
2013-11-16 16:10:00,73.0,53.8,29.42,SSW,202,10.3,28.4,51,-99.99,,,0.00,wxRedirect v1.1,2013-11-16 22:10:00,
2013-11-16 16:16:00,73.0,53.8,29.42,South,180,18.6,28.4,51,-99.99,,,0.00,wxRedirect v1.1,2013-11-16 22:16:00,
2013-11-16 16:21:00,72.9,53.6,29.42,South,180,14.3,22.4,51,-99.99,,,0.00,wxRedirect v1.1,2013-11-16 22:21:00,
2013-11-16 16:26:00,72.7,53.5,29.42,South,180,6.9,22.4,51,-99.99,,,0.00,wxRedirect v1.1,2013-11-16 22:26:00,
2013-11-16 16:32:00,72.7,53.5,29.42,SSW,202,13.4,18.8,51,-99.99,,,0.00,wxRedirect v1.1,2013-11-16 22:32:00,
2013-11-16 16:37:00,72.7,53.5,29.42,South,180,10.3,18.8,51,-99.99,,,0.00,wxRedirect v1.1,2013-11-16 22:37:00,
2013-11-16 16:42:00,72.5,53.3,29.42,SSW,202,8.1,20.1,51,-99.99,,,0.00,wxRedirect v1.1,2013-11-16 22:42:00,
2013-11-16 16:48:00,72.3,53.1,29.42,South,180,5.4,26.6,51,-99.99,,,0.00,wxRedirect v1.1,2013-11-16 22:48:00,
2013-11-16 16:53:00,72.3,53.1,29.42,SSW,202,10.5,26.6,51,-99.99,,,0.00,wxRedirect v1.1,2013-11-16 22:53:00,
2013-11-16 16:58:00,72.1,53.0,29.42,South,180,22.1,22.1,51,-99.99,,,0.00,wxRedirect v1.1,2013-11-16 22:58:00,
2013-11-16 17:04:00,72.1,53.0,29.42,South,180,11.9,22.1,51,-99.99,,,0.00,wxRedirect v1.1,2013-11-16 23:04:00,
2013-11-16 17:09:00,72.1,53.0,29.42,South,180,4.5,13.2,51,-99.99,,,0.00,wxRedirect v1.1,2013-11-16 23:09:00,
2013-11-16 17:14:00,72.0,52.8,29.42,South,180,10.5,18.3,51,-99.99,,,0.00,wxRedirect v1.1,2013-11-16 23:14:00,
2013-11-16 17:20:00,71.8,52.6,29.42,SSW,202,10.1,18.3,51,-99.99,,,0.00,wxRedirect v1.1,2013-11-16 23:20:00,
2013-11-16 17:25:00,71.8,53.2,29.42,South,180,12.3,12.3,52,-99.99,,,0.00,wxRedirect v1.1,2013-11-16 23:25:00,
2013-11-16 17:30:00,71.4,53.3,29.43,South,180,2.0,12.8,53,-99.99,,,0.00,wxRedirect v1.1,2013-11-16 23:30:00,
2013-11-16 17:36:00,71.2,53.2,29.43,South,180,4.5,12.8,53,-99.99,,,0.00,wxRedirect v1.1,2013-11-16 23:36:00,
2013-11-16 17:41:00,70.9,53.3,29.43,SSE,157,8.7,10.5,54,-99.99,,,0.00,wxRedirect v1.1,2013-11-16 23:41:00,
2013-11-16 17:46:00,70.7,53.2,29.43,South,180,8.1,9.6,54,-99.99,,,0.00,wxRedirect v1.1,2013-11-16 23:46:00,
2013-11-16 17:52:00,70.5,53.5,29.44,SSE,157,4.9,13.2,55,-99.99,,,0.00,wxRedirect v1.1,2013-11-16 23:52:00,
2013-11-16 17:57:00,70.3,53.4,29.44,SSE,157,5.4,10.5,55,-99.99,,,0.00,wxRedirect v1.1,2013-11-16 23:57:00,
2013-11-16 18:02:00,70.0,53.5,29.44,SSE,157,5.1,9.6,56,-99.99,,,0.00,wxRedirect v1.1,2013-11-17 00:02:00,
2013-11-16 18:08:00,69.8,53.4,29.44,SSE,157,5.1,14.5,56,-99.99,,,0.00,wxRedirect v1.1,2013-11-17 00:08:00,
2013-11-16 18:13:00,69.6,53.2,29.44,SSE,157,12.5,17.2,56,-99.99,,,0.00,wxRedirect v1.1,2013-11-17 00:13:00,
2013-11-16 18:18:00,69.6,53.7,29.44,SSE,157,23.0,23.0,57,-99.99,,,0.00,wxRedirect v1.1,2013-11-17 00:18:00,
2013-11-16 18:24:00,69.4,53.5,29.44,SSE,157,6.9,23.0,57,-99.99,,,0.00,wxRedirect v1.1,2013-11-17 00:24:00,
2013-11-16 18:29:00,69.3,53.3,29.44,South,180,7.4,16.1,57,-99.99,,,0.00,wxRedirect v1.1,2013-11-17 00:29:00,
2013-11-16 18:34:00,69.1,53.2,29.44,South,180,9.4,12.1,57,-99.99,,,0.00,wxRedirect v1.1,2013-11-17 00:34:00,
2013-11-16 18:40:00,68.9,53.0,29.44,South,180,8.5,15.9,57,-99.99,,,0.00,wxRedirect v1.1,2013-11-17 00:40:00,
2013-11-16 18:45:00,68.9,53.0,29.44,South,180,12.5,16.1,57,-99.99,,,0.00,wxRedirect v1.1,2013-11-17 00:45:00,
2013-11-16 18:50:00,68.7,52.8,29.45,SSW,202,16.8,16.8,57,-99.99,,,0.00,wxRedirect v1.1,2013-11-17 00:50:00,
2013-11-16 18:56:00,68.7,52.8,29.45,SSW,202,5.4,16.8,57,-99.99,,,0.00,wxRedirect v1.1,2013-11-17 00:56:00,
2013-11-16 19:01:00,68.7,52.8,29.44,SSW,202,8.7,21.0,57,-99.99,,,0.00,wxRedirect v1.1,2013-11-17 01:01:00,
2013-11-16 19:06:00,68.7,53.3,29.45,SSE,157,12.3,21.0,58,-99.99,,,0.00,wxRedirect v1.1,2013-11-17 01:06:00,
2013-11-16 19:12:00,68.7,53.3,29.45,South,180,14.1,19.2,58,-99.99,,,0.00,wxRedirect v1.1,2013-11-17 01:12:00,
2013-11-16 19:17:00,68.7,53.3,29.45,SSE,157,4.7,18.3,58,-99.99,,,0.00,wxRedirect v1.1,2013-11-17 01:17:00,
2013-11-16 19:22:00,68.5,53.6,29.45,SSE,157,7.6,19.2,59,-99.99,,,0.00,wxRedirect v1.1,2013-11-17 01:22:00,
2013-11-16 19:27:00,68.4,53.5,29.45,SSE,157,11.9,19.2,59,-99.99,,,0.00,wxRedirect v1.1,2013-11-17 01:27:00,
2013-11-16 19:33:00,68.2,53.8,29.45,SSE,157,11.4,15.2,60,-99.99,,,0.00,wxRedirect v1.1,2013-11-17 01:33:00,
2013-11-16 19:38:00,68.2,53.8,29.45,SSW,202,11.0,22.8,60,-99.99,,,0.00,wxRedirect v1.1,2013-11-17 01:38:00,
2013-11-16 19:43:00,67.8,53.9,29.45,SSE,157,6.7,22.8,61,-99.99,,,0.00,wxRedirect v1.1,2013-11-17 01:43:00,
2013-11-16 19:49:00,67.8,53.9,29.45,SSW,202,26.6,26.6,61,-99.99,,,0.00,wxRedirect v1.1,2013-11-17 01:49:00,
2013-11-16 19:54:00,67.6,53.7,29.45,South,180,13.6,26.6,61,-99.99,,,0.00,wxRedirect v1.1,2013-11-17 01:54:00,
2013-11-16 19:59:00,67.6,54.1,29.45,SSE,157,17.7,22.1,62,-99.99,,,0.00,wxRedirect v1.1,2013-11-17 01:59:00,
2013-11-16 20:05:00,67.5,54.0,29.45,SSE,157,11.2,25.9,62,-99.99,,,0.00,wxRedirect v1.1,2013-11-17 02:05:00,
2013-11-16 20:10:00,67.3,53.8,29.44,South,180,14.3,18.3,62,-99.99,,,0.00,wxRedirect v1.1,2013-11-17 02:10:00,
2013-11-16 20:15:00,67.1,53.6,29.44,SSE,157,11.2,17.2,62,-99.99,,,0.00,wxRedirect v1.1,2013-11-17 02:15:00,
2013-11-16 20:21:00,66.9,53.5,29.44,South,180,11.2,16.3,62,-99.99,,,0.00,wxRedirect v1.1,2013-11-17 02:21:00,
2013-11-16 20:26:00,66.7,53.3,29.45,SSE,157,12.5,18.8,62,-99.99,,,0.00,wxRedirect v1.1,2013-11-17 02:26:00,
2013-11-16 20:31:00,66.6,53.5,29.45,South,180,7.4,18.8,63,-99.99,,,0.00,wxRedirect v1.1,2013-11-17 02:31:00,
2013-11-16 20:37:00,66.4,53.4,29.45,SSE,157,9.4,19.2,63,-99.99,,,0.00,wxRedirect v1.1,2013-11-17 02:37:00,
2013-11-16 20:42:00,66.2,53.6,29.44,SSW,202,10.1,19.2,64,-99.99,,,0.00,wxRedirect v1.1,2013-11-17 02:42:00,
2013-11-16 20:47:00,66.0,53.5,29.44,SSW,202,8.3,17.2,64,-99.99,,,0.00,wxRedirect v1.1,2013-11-17 02:47:00,
2013-11-16 20:53:00,66.0,53.9,29.44,SSW,202,12.5,19.2,65,-99.99,,,0.00,wxRedirect v1.1,2013-11-17 02:53:00,
2013-11-16 20:58:00,65.8,53.7,29.44,SSE,157,10.7,21.5,65,-99.99,,,0.00,wxRedirect v1.1,2013-11-17 02:58:00,
2013-11-16 21:03:00,65.8,54.1,29.44,SSW,202,20.6,21.5,66,-99.99,,,0.00,wxRedirect v1.1,2013-11-17 03:03:00,
2013-11-16 21:08:00,65.7,53.9,29.44,South,180,22.4,22.4,66,-99.99,,,0.00,wxRedirect v1.1,2013-11-17 03:08:00,
2013-11-16 21:13:00,65.5,53.8,29.44,South,180,12.8,22.4,66,-99.99,,,0.00,wxRedirect v1.1,2013-11-17 03:13:00,
2013-11-16 21:19:00,65.5,53.8,29.43,South,180,12.3,21.3,66,-99.99,,,0.00,wxRedirect v1.1,2013-11-17 03:19:00,
2013-11-16 21:24:00,65.3,54.0,29.44,South,180,15.2,21.3,67,-99.99,,,0.00,wxRedirect v1.1,2013-11-17 03:24:00,
2013-11-16 21:29:00,65.1,53.9,29.44,SSW,202,8.5,17.7,67,-99.99,,,0.00,wxRedirect v1.1,2013-11-17 03:29:00,
2013-11-16 21:35:00,65.1,53.9,29.44,South,180,16.6,17.7,67,-99.99,,,0.00,wxRedirect v1.1,2013-11-17 03:35:00,
2013-11-16 21:40:00,65.1,53.9,29.44,SSE,157,18.3,18.3,67,-99.99,,,0.00,wxRedirect v1.1,2013-11-17 03:40:00,
2013-11-16 21:45:00,64.9,54.1,29.44,SSE,157,12.8,19.0,68,-99.99,,,0.00,wxRedirect v1.1,2013-11-17 03:45:00,
2013-11-16 21:57:00,64.8,54.0,29.44,SSW,202,9.8,9.8,68,-99.99,,,0.00,wxRedirect v1.1,2013-11-17 03:57:00,
2013-11-16 22:02:00,64.8,54.0,29.44,South,180,4.3,16.3,68,-99.99,,,0.00,wxRedirect v1.1,2013-11-17 04:02:00,
2013-11-16 22:07:00,64.6,53.8,29.43,South,180,15.0,21.3,68,-99.99,,,0.00,wxRedirect v1.1,2013-11-17 04:07:00,
2013-11-16 22:13:00,64.4,54.1,29.43,South,180,5.1,21.3,69,-99.99,,,0.00,wxRedirect v1.1,2013-11-17 04:13:00,
2013-11-16 22:18:00,64.2,53.9,29.43,SSE,157,6.5,18.1,69,-99.99,,,0.00,wxRedirect v1.1,2013-11-17 04:18:00,
2013-11-16 22:24:00,64.2,53.9,29.43,SSE,157,6.7,16.3,69,-99.99,,,0.00,wxRedirect v1.1,2013-11-17 04:24:00,
2013-11-16 22:29:00,64.2,53.9,29.43,South,180,15.0,18.8,69,-99.99,,,0.00,wxRedirect v1.1,2013-11-17 04:29:00,
2013-11-16 22:34:00,64.2,53.9,29.43,North,-999,-999.0,-999.0,69,-99.99,,,0.00,wxRedirect v1.1,2013-11-17 04:34:00,
2013-11-16 22:40:00,64.0,53.7,29.43,South,180,12.5,19.7,69,-99.99,,,0.00,wxRedirect v1.1,2013-11-17 04:40:00,
2013-11-16 22:45:00,64.0,53.7,29.42,SSE,157,10.5,19.7,69,-99.99,,,0.00,wxRedirect v1.1,2013-11-17 04:45:00,
2013-11-16 22:50:00,64.0,53.7,29.42,SSE,157,8.7,16.3,69,-99.99,,,0.00,wxRedirect v1.1,2013-11-17 04:50:00,
2013-11-16 22:55:00,64.0,53.3,29.43,SW,225,12.1,20.6,68,-99.99,,,0.00,wxRedirect v1.1,2013-11-17 04:55:00,
2013-11-16 23:01:00,63.9,53.1,29.42,SW,225,18.8,20.6,68,-99.99,,,0.00,wxRedirect v1.1,2013-11-17 05:01:00,
2013-11-16 23:02:00,63.9,53.1,29.42,SSW,202,7.8,18.8,68,-99.99,,,0.00,wxRedirect v1.1,2013-11-17 05:02:00,
2013-11-16 23:03:00,63.9,53.1,29.42,SSW,202,9.8,18.8,68,-99.99,,,0.00,wxRedirect v1.1,2013-11-17 05:03:00,
2013-11-16 23:07:00,63.7,52.5,29.43,SW,225,11.4,18.8,67,-99.99,,,0.00,wxRedirect v1.1,2013-11-17 05:07:00,
2013-11-16 23:12:00,63.7,52.1,29.42,South,180,10.5,14.5,66,-99.99,,,0.00,wxRedirect v1.1,2013-11-17 05:12:00,
2013-11-16 23:17:00,63.9,52.3,29.42,SSW,202,10.5,17.4,66,-99.99,,,0.00,wxRedirect v1.1,2013-11-17 05:17:00,
2013-11-16 23:23:00,64.0,51.6,29.42,South,180,9.4,25.3,64,-99.99,,,0.00,wxRedirect v1.1,2013-11-17 05:23:00,
2013-11-16 23:28:00,64.0,51.1,29.42,South,180,7.2,25.3,63,-99.99,,,0.00,wxRedirect v1.1,2013-11-17 05:28:00,
2013-11-16 23:33:00,64.0,50.7,29.42,South,180,5.6,13.2,62,-99.99,,,0.00,wxRedirect v1.1,2013-11-17 05:33:00,
2013-11-16 23:39:00,64.0,50.3,29.42,South,180,10.7,18.1,61,-99.99,,,0.00,wxRedirect v1.1,2013-11-17 05:39:00,
2013-11-16 23:44:00,64.0,49.9,29.42,North,-999,-999.0,-999.0,60,-99.99,,,0.00,wxRedirect v1.1,2013-11-17 05:44:00,
2013-11-16 23:49:00,64.0,48.9,29.42,SSW,202,12.3,16.8,58,-99.99,,,0.00,wxRedirect v1.1,2013-11-17 05:49:00,
2013-11-16 23:55:00,64.2,48.6,29.42,SSW,202,17.0,17.0,57,-99.99,,,0.00,wxRedirect v1.1,2013-11-17 05:55:00,